createdAt,value
2022-08-22T00:00:24.401Z,2.90
2022-08-22T00:02:42.590Z,2.38
2022-08-22T00:02:59.616Z,2.70
2022-08-22T00:03:03.228Z,2.67
2022-08-22T00:03:11.561Z,3.03
2022-08-22T00:05:57.991Z,2.70
2022-08-22T00:08:52.689Z,3.10
2022-08-22T00:11:28.028Z,3.20
2022-08-22T00:14:18.796Z,3.72
2022-08-22T00:17:04.131Z,3.10
2022-08-22T00:19:54.546Z,3.45
2022-08-22T00:22:42.961Z,2.95
2022-08-22T00:25:58.331Z,2.97
2022-08-22T00:28:31.348Z,3.00
2022-08-22T00:31:18.104Z,3.00
2022-08-22T00:34:02.833Z,3.15
2022-08-22T00:36:35.737Z,3.33
2022-08-22T00:39:29.043Z,3.13
2022-08-22T00:42:08.254Z,3.10
2022-08-22T00:44:50.552Z,2.78
2022-08-22T00:47:47.858Z,2.80
2022-08-22T00:50:23.351Z,2.83
2022-08-22T00:53:03.335Z,2.80
2022-08-22T00:55:39.679Z,2.83
2022-08-22T00:58:25.080Z,2.90
2022-08-22T01:01:01.816Z,2.90
2022-08-22T01:03:49.501Z,2.83
2022-08-22T01:06:18.752Z,3.33
2022-08-22T01:08:59.639Z,3.33
2022-08-22T01:12:11.917Z,2.95
2022-08-22T01:14:52.334Z,3.05
2022-08-22T01:17:56.476Z,3.05
2022-08-22T01:20:47.681Z,2.90
2022-08-22T01:23:44.253Z,3.10
2022-08-22T01:26:19.853Z,3.15
2022-08-22T01:29:02.177Z,2.72
2022-08-22T01:31:47.450Z,2.58
2022-08-22T01:34:47.151Z,2.72
2022-08-22T01:37:43.731Z,2.83
2022-08-22T01:40:37.918Z,2.70
2022-08-22T01:43:58.806Z,2.67
2022-08-22T01:46:31.266Z,2.55
2022-08-22T01:49:37.294Z,2.60
2022-08-22T01:52:19.876Z,2.85
2022-08-22T01:54:55.870Z,3.08
2022-08-22T01:57:24.027Z,3.13
2022-08-22T01:59:54.566Z,3.40
2022-08-22T02:02:32.313Z,2.80
2022-08-22T02:05:20.025Z,2.90
2022-08-22T02:07:53.404Z,2.95
2022-08-22T02:10:38.296Z,3.17
2022-08-22T02:13:13.956Z,2.90
2022-08-22T02:15:40.499Z,3.20
2022-08-22T02:18:07.003Z,2.90
2022-08-22T02:20:41.080Z,2.90
2022-08-22T02:23:07.596Z,3.28
2022-08-22T02:25:51.581Z,2.95
2022-08-22T02:28:42.438Z,2.70
2022-08-22T02:31:46.971Z,2.80
2022-08-22T02:34:34.949Z,2.90
2022-08-22T02:37:22.188Z,3.05
2022-08-22T02:40:04.902Z,2.80
2022-08-22T02:42:38.203Z,2.70
2022-08-22T02:45:28.891Z,3.22
2022-08-22T02:48:14.946Z,3.70
2022-08-22T02:51:13.698Z,3.53
2022-08-22T02:54:07.213Z,4.07
2022-08-22T02:56:43.875Z,3.50
2022-08-22T02:59:47.760Z,4.03
2022-08-22T03:02:27.810Z,2.75
2022-08-22T03:05:16.607Z,2.88
2022-08-22T03:07:51.134Z,2.63
2022-08-22T03:10:26.180Z,3.30
2022-08-22T03:13:06.851Z,2.97
2022-08-22T03:15:48.633Z,3.13
2022-08-22T03:18:42.841Z,3.10
2022-08-22T03:21:27.682Z,3.05
2022-08-22T03:24:16.272Z,3.22
2022-08-22T03:27:06.897Z,3.20
2022-08-22T03:29:38.252Z,2.90
2022-08-22T03:32:12.537Z,2.83
2022-08-22T03:35:08.219Z,2.95
2022-08-22T03:37:37.834Z,3.00
2022-08-22T03:40:08.299Z,2.67
2022-08-22T03:43:05.821Z,2.90
2022-08-22T03:45:49.506Z,2.80
2022-08-22T03:48:45.912Z,3.30
2022-08-22T03:51:18.691Z,3.20
2022-08-22T03:53:58.267Z,2.80
2022-08-22T03:56:44.404Z,3.53
2022-08-22T03:59:44.616Z,3.28
2022-08-22T04:02:43.182Z,3.10
2022-08-22T04:05:43.461Z,3.30
2022-08-22T04:08:28.662Z,3.10
2022-08-22T04:11:28.911Z,3.42
2022-08-22T04:14:07.765Z,3.60
2022-08-22T04:16:52.901Z,3.15
2022-08-22T04:19:49.713Z,2.92
2022-08-22T04:22:28.822Z,3.47
2022-08-22T04:25:23.370Z,3.10
2022-08-22T04:27:58.950Z,3.33
2022-08-22T04:30:35.781Z,3.20
2022-08-22T04:33:14.395Z,2.60
2022-08-22T04:35:59.746Z,3.05
2022-08-22T04:38:36.796Z,3.22
2022-08-22T04:41:06.411Z,3.40
2022-08-22T04:44:03.370Z,3.30
2022-08-22T04:46:41.761Z,3.20
2022-08-22T04:49:48.459Z,3.22
2022-08-22T04:52:33.502Z,3.10
2022-08-22T04:55:30.506Z,3.60
2022-08-22T04:58:19.566Z,3.30
2022-08-22T05:01:03.674Z,3.60
2022-08-22T05:03:33.214Z,3.50
2022-08-22T05:06:02.958Z,3.45
2022-08-22T05:08:33.574Z,3.40
2022-08-22T05:11:03.359Z,3.38
2022-08-22T05:13:40.605Z,3.33
2022-08-22T05:16:15.391Z,3.08
2022-08-22T05:18:50.634Z,3.42
2022-08-22T05:21:23.178Z,2.97
2022-08-22T05:24:04.608Z,3.00
2022-08-22T05:26:38.109Z,3.45
2022-08-22T05:29:10.541Z,3.13
2022-08-22T05:32:00.849Z,3.53
2022-08-22T05:34:33.018Z,3.40
2022-08-22T05:37:25.738Z,3.83
2022-08-22T05:39:56.877Z,3.40
2022-08-22T05:42:30.581Z,3.70
2022-08-22T05:44:58.638Z,3.35
2022-08-22T05:47:40.157Z,3.38
2022-08-22T05:50:22.050Z,3.10
2022-08-22T05:52:54.658Z,3.60
2022-08-22T05:55:30.112Z,4.50
2022-08-22T05:58:18.301Z,3.90
2022-08-22T06:00:48.701Z,3.97
2022-08-22T06:03:18.625Z,3.50
2022-08-22T06:05:49.909Z,3.83
2022-08-22T06:08:31.508Z,4.03
2022-08-22T06:11:06.479Z,3.70
2022-08-22T06:13:41.485Z,3.80
2022-08-22T06:16:21.483Z,3.90
2022-08-22T06:18:50.299Z,4.50
2022-08-22T06:21:38.533Z,4.30
2022-08-22T06:24:13.141Z,4.30
2022-08-22T06:26:48.606Z,3.83
2022-08-22T06:29:53.554Z,4.10
2022-08-22T06:32:38.234Z,3.80
2022-08-22T06:36:07.080Z,3.70
2022-08-22T06:38:55.077Z,3.65
2022-08-22T06:41:26.501Z,3.70
2022-08-22T06:43:54.330Z,4.22
2022-08-22T06:46:23.110Z,3.90
2022-08-22T06:48:50.405Z,3.78
2022-08-22T06:51:19.917Z,3.90
2022-08-22T06:53:53.852Z,3.90
2022-08-22T06:56:25.414Z,3.95
2022-08-22T06:58:59.777Z,3.80
2022-08-22T07:01:45.073Z,4.22
2022-08-22T07:04:11.797Z,4.20
2022-08-22T07:06:45.319Z,4.13
2022-08-22T07:09:28.689Z,3.80
2022-08-22T07:12:00.335Z,4.60
2022-08-22T07:14:38.601Z,4.30
2022-08-22T07:17:08.689Z,4.20
2022-08-22T07:19:38.424Z,3.92
2022-08-22T07:22:14.710Z,3.90
2022-08-22T07:24:48.640Z,3.80
2022-08-22T07:27:45.737Z,4.18
2022-08-22T07:30:27.911Z,4.57
2022-08-22T07:33:26.597Z,4.10
2022-08-22T07:36:01.599Z,4.30
2022-08-22T07:38:42.950Z,3.90
2022-08-22T07:41:22.439Z,3.83
2022-08-22T07:44:06.759Z,3.80
2022-08-22T07:46:53.510Z,4.05
2022-08-22T07:49:29.370Z,3.58
2022-08-22T07:52:01.639Z,3.60
2022-08-22T07:54:44.800Z,3.70
2022-08-22T07:57:27.555Z,3.53
2022-08-22T07:59:57.627Z,3.60
2022-08-22T08:02:25.349Z,3.45
2022-08-22T08:04:56.344Z,3.75
2022-08-22T08:07:26.725Z,3.88
2022-08-22T08:09:55.781Z,3.72
2022-08-22T08:12:35.353Z,3.65
2022-08-22T08:15:05.394Z,3.47
2022-08-22T08:17:35.483Z,3.72
2022-08-22T08:20:12.787Z,3.50
2022-08-22T08:22:43.080Z,3.53
2022-08-22T08:25:15.651Z,3.80
2022-08-22T08:28:15.046Z,3.75
2022-08-22T08:30:55.902Z,3.38
2022-08-22T08:33:28.159Z,3.85
2022-08-22T08:36:41.039Z,3.70
2022-08-22T08:39:24.136Z,3.50
2022-08-22T08:41:53.794Z,3.65
2022-08-22T08:44:54.396Z,3.88
2022-08-22T08:47:45.900Z,3.35
2022-08-22T08:50:25.253Z,3.65
2022-08-22T08:53:13.553Z,3.72
2022-08-22T08:56:06.126Z,3.95
2022-08-22T08:59:10.890Z,4.38
2022-08-22T09:02:03.417Z,4.55
2022-08-22T09:04:41.478Z,4.10
2022-08-22T09:07:26.258Z,3.90
2022-08-22T09:10:38.161Z,3.65
2022-08-22T09:13:29.069Z,3.63
2022-08-22T09:16:34.958Z,3.80
2022-08-22T09:19:20.006Z,3.30
2022-08-22T09:22:14.170Z,3.40
2022-08-22T09:25:01.373Z,3.65
2022-08-22T09:27:46.053Z,3.50
2022-08-22T09:30:18.117Z,3.88
2022-08-22T09:33:06.257Z,3.80
2022-08-22T09:35:51.091Z,3.72
2022-08-22T09:38:47.760Z,3.63
2022-08-22T09:41:51.726Z,3.97
2022-08-22T09:44:41.004Z,4.00
2022-08-22T09:47:32.627Z,4.20
2022-08-22T09:50:05.477Z,3.70
2022-08-22T09:52:46.969Z,3.78
2022-08-22T09:55:41.208Z,4.30
2022-08-22T09:58:40.238Z,3.55
2022-08-22T10:01:26.689Z,3.80
2022-08-22T10:04:19.583Z,3.97
2022-08-22T10:07:11.670Z,3.83
2022-08-22T10:10:21.501Z,3.70
2022-08-22T10:13:13.573Z,3.42
2022-08-22T10:15:54.888Z,3.45
2022-08-22T10:18:36.920Z,4.00
2022-08-22T10:21:13.936Z,3.38
2022-08-22T10:23:50.105Z,3.17
2022-08-22T10:26:43.174Z,3.10
2022-08-22T10:29:31.597Z,3.30
2022-08-22T10:32:14.564Z,2.70
2022-08-22T10:34:49.293Z,2.85
2022-08-22T10:37:24.299Z,3.03
2022-08-22T10:40:03.653Z,3.10
2022-08-22T10:42:36.504Z,2.70
2022-08-22T10:45:36.695Z,3.00
2022-08-22T10:48:08.970Z,3.10
2022-08-22T10:50:42.896Z,2.85
2022-08-22T10:53:53.829Z,2.75
2022-08-22T10:56:35.077Z,2.70
2022-08-22T10:59:26.315Z,2.70
2022-08-22T11:02:16.516Z,3.08
2022-08-22T11:05:20.743Z,3.03
2022-08-22T11:08:01.167Z,2.72
2022-08-22T11:10:35.040Z,3.08
2022-08-22T11:13:45.920Z,2.83
2022-08-22T11:16:43.471Z,2.78
2022-08-22T11:19:31.852Z,2.83
2022-08-22T11:22:14.584Z,2.65
2022-08-22T11:25:04.635Z,3.10
2022-08-22T11:27:43.429Z,4.45
2022-08-22T11:30:18.326Z,3.20
2022-08-22T11:33:00.751Z,3.08
2022-08-22T11:35:34.428Z,2.63
2022-08-22T11:38:11.740Z,2.90
2022-08-22T11:40:46.575Z,3.17
2022-08-22T11:43:40.004Z,3.30
2022-08-22T11:46:36.022Z,3.05
2022-08-22T11:49:12.096Z,3.00
2022-08-22T11:51:50.850Z,3.22
2022-08-22T11:54:44.576Z,3.30
2022-08-22T11:57:31.305Z,3.30
2022-08-22T12:00:04.547Z,3.40
2022-08-22T12:03:04.594Z,2.80
2022-08-22T12:05:41.465Z,3.30
2022-08-22T12:08:21.817Z,3.25
2022-08-22T12:11:03.432Z,2.83
2022-08-22T12:13:47.334Z,3.10
2022-08-22T12:16:53.378Z,3.10
2022-08-22T12:19:34.519Z,2.72
2022-08-22T12:22:37.264Z,3.05
2022-08-22T12:25:17.391Z,3.10
2022-08-22T12:27:50.654Z,3.00
2022-08-22T12:30:35.815Z,3.33
2022-08-22T12:33:16.380Z,2.90
2022-08-22T12:36:03.023Z,2.92
2022-08-22T12:38:47.465Z,2.75
2022-08-22T12:41:28.484Z,2.63
2022-08-22T12:44:21.368Z,2.75
2022-08-22T12:47:11.579Z,2.60
2022-08-22T12:49:56.809Z,2.90
2022-08-22T12:52:28.572Z,2.70
2022-08-22T12:55:07.016Z,3.00
2022-08-22T12:57:50.287Z,2.70
2022-08-22T13:00:23.146Z,2.53
2022-08-22T13:02:56.066Z,2.83
2022-08-22T13:05:29.339Z,2.63
2022-08-22T13:08:05.559Z,3.00
2022-08-22T13:10:51.673Z,3.20
2022-08-22T13:13:43.374Z,2.92
2022-08-22T13:16:26.557Z,2.55
2022-08-22T13:18:54.747Z,2.60
2022-08-22T13:21:37.332Z,3.35
2022-08-22T13:24:12.927Z,2.83
2022-08-22T13:27:01.667Z,2.95
2022-08-22T13:29:53.260Z,2.90
2022-08-22T13:32:32.672Z,2.85
2022-08-22T13:35:01.190Z,2.80
2022-08-22T13:37:43.530Z,2.78
2022-08-22T13:40:21.117Z,2.63
2022-08-22T13:42:54.136Z,2.80
2022-08-22T13:45:29.808Z,2.63
2022-08-22T13:48:03.613Z,3.10
2022-08-22T13:50:37.472Z,2.85
2022-08-22T13:53:34.363Z,2.90
2022-08-22T13:56:18.941Z,2.90
2022-08-22T13:58:50.362Z,3.17
2022-08-22T14:01:38.423Z,2.90
2022-08-22T14:04:33.275Z,2.70
2022-08-22T14:07:06.092Z,2.50
2022-08-22T14:09:40.561Z,2.30
2022-08-22T14:12:16.066Z,5.18
2022-08-22T14:14:46.434Z,2.72
2022-08-22T14:17:38.509Z,2.42
2022-08-22T14:20:32.397Z,2.40
2022-08-22T14:23:14.061Z,2.22
2022-08-22T14:25:43.275Z,4.78
2022-08-22T14:28:29.688Z,3.15
2022-08-22T14:31:02.537Z,2.55
2022-08-22T14:33:39.715Z,2.60
2022-08-22T14:36:18.133Z,2.40
2022-08-22T14:38:51.845Z,2.70
2022-08-22T14:41:52.649Z,2.60
2022-08-22T14:44:32.586Z,2.67
2022-08-22T14:47:04.206Z,2.78
2022-08-22T14:49:49.719Z,2.70
2022-08-22T14:52:37.746Z,2.60
2022-08-22T14:55:23.308Z,2.75
2022-08-22T14:57:58.031Z,3.00
2022-08-22T15:00:34.189Z,2.50
2022-08-22T15:03:15.954Z,2.60
2022-08-22T15:06:01.547Z,4.85
2022-08-22T15:08:48.042Z,4.40
2022-08-22T15:11:18.599Z,2.63
2022-08-22T15:14:12.600Z,2.42
2022-08-22T15:16:54.736Z,2.42
2022-08-22T15:19:36.773Z,2.40
2022-08-22T15:22:13.561Z,2.60
2022-08-22T15:24:57.047Z,2.50
2022-08-22T15:27:25.618Z,2.40
2022-08-22T15:29:58.928Z,2.40
2022-08-22T15:32:29.613Z,2.20
2022-08-22T15:35:04.371Z,2.40
2022-08-22T15:37:34.304Z,2.30
2022-08-22T15:40:32.903Z,3.80
2022-08-22T15:43:15.495Z,2.47
2022-08-22T15:45:45.504Z,2.53
2022-08-22T15:48:56.371Z,2.42
2022-08-22T15:52:06.004Z,2.35
2022-08-22T15:54:46.849Z,2.35
2022-08-22T15:57:24.372Z,2.25
2022-08-22T15:59:58.927Z,2.17
2022-08-22T16:03:06.943Z,2.13
2022-08-22T16:05:53.183Z,2.30
2022-08-22T16:08:32.947Z,2.40
2022-08-22T16:11:02.939Z,2.50
2022-08-22T16:13:29.838Z,2.40
2022-08-22T16:16:13.261Z,2.40
2022-08-22T16:18:39.846Z,2.40
2022-08-22T16:21:15.824Z,2.10
2022-08-22T16:23:51.715Z,2.35
2022-08-22T16:26:24.793Z,2.50
2022-08-22T16:29:03.299Z,2.40
2022-08-22T16:31:52.826Z,3.60
2022-08-22T16:34:27.430Z,2.60
2022-08-22T16:37:09.050Z,2.58
2022-08-22T16:39:43.008Z,2.30
2022-08-22T16:42:15.702Z,2.10
2022-08-22T16:45:00.898Z,2.38
2022-08-22T16:47:36.132Z,2.20
2022-08-22T16:50:24.238Z,1.80
2022-08-22T16:53:10.116Z,2.45
2022-08-22T16:55:47.952Z,2.20
2022-08-22T16:58:29.575Z,2.50
2022-08-22T17:01:26.240Z,4.65
2022-08-22T17:03:58.306Z,2.38
2022-08-22T17:06:55.601Z,2.75
2022-08-22T17:09:27.747Z,2.70
2022-08-22T17:11:54.218Z,2.40
2022-08-22T17:14:33.216Z,2.70
2022-08-22T17:17:33.753Z,2.38
2022-08-22T17:20:15.705Z,2.40
2022-08-22T17:23:13.161Z,2.22
2022-08-22T17:25:58.498Z,2.35
2022-08-22T17:28:46.412Z,2.38
2022-08-22T17:31:36.958Z,2.47
2022-08-22T17:34:29.309Z,2.45
2022-08-22T17:37:31.439Z,2.88
2022-08-22T17:40:10.462Z,2.90
2022-08-22T17:43:05.398Z,2.50
2022-08-22T17:45:54.163Z,2.65
2022-08-22T17:48:50.017Z,2.30
2022-08-22T17:51:39.202Z,2.30
2022-08-22T17:54:37.394Z,2.40
2022-08-22T17:57:15.164Z,2.60
2022-08-22T18:00:00.996Z,2.45
2022-08-22T18:02:40.801Z,2.90
2022-08-22T18:05:16.562Z,2.80
2022-08-22T18:08:10.037Z,3.00
2022-08-22T18:10:41.383Z,2.90
2022-08-22T18:13:49.699Z,4.88
2022-08-22T18:16:16.472Z,2.90
2022-08-22T18:18:46.137Z,2.85
2022-08-22T18:21:33.569Z,3.22
2022-08-22T18:24:31.319Z,3.03
2022-08-22T18:27:09.367Z,3.35
2022-08-22T18:30:13.891Z,2.80
2022-08-22T18:32:46.656Z,3.20
2022-08-22T18:35:22.828Z,2.65
2022-08-22T18:38:19.182Z,3.08
2022-08-22T18:52:08.869Z,2.58
2022-08-22T18:54:50.608Z,2.70
2022-08-22T18:57:38.677Z,2.50
2022-08-22T19:00:16.760Z,2.80
2022-08-22T19:03:08.807Z,2.60
2022-08-22T19:06:24.898Z,2.85
2022-08-22T19:09:05.300Z,3.10
2022-08-22T19:12:09.467Z,2.60
2022-08-22T19:15:12.880Z,2.90
2022-08-22T19:17:58.786Z,2.55
2022-08-22T19:20:51.619Z,2.88
2022-08-22T19:23:40.694Z,3.08
2022-08-22T19:26:35.362Z,2.50
2022-08-22T19:29:08.791Z,3.65
2022-08-22T19:31:39.966Z,2.97
2022-08-22T19:46:18.750Z,2.80
2022-08-22T19:48:57.882Z,3.38
2022-08-22T19:51:28.252Z,3.08
2022-08-22T19:53:58.008Z,3.00
2022-08-22T19:56:34.625Z,2.80
2022-08-22T19:59:13.578Z,3.00
2022-08-22T20:01:54.244Z,3.35
2022-08-22T20:04:30.207Z,2.80
2022-08-22T20:07:15.026Z,3.30
2022-08-22T20:09:59.055Z,3.30
2022-08-22T20:12:28.670Z,3.30
2022-08-22T20:14:56.314Z,3.40
2022-08-22T20:17:25.946Z,3.10
2022-08-22T20:22:52.778Z,3.40
2022-08-22T20:25:43.466Z,2.80
2022-08-22T20:28:44.801Z,2.80
2022-08-22T20:31:21.030Z,2.97
2022-08-22T20:33:55.482Z,2.65
2022-08-22T20:36:28.863Z,2.70
2022-08-22T20:39:04.952Z,2.80
2022-08-22T20:41:40.493Z,2.90
2022-08-22T20:44:13.753Z,2.60
2022-08-22T20:46:53.329Z,2.70
2022-08-22T20:49:24.734Z,2.85
2022-08-22T20:51:58.415Z,3.00
2022-08-22T20:54:31.339Z,2.95
2022-08-22T20:57:16.118Z,2.83
2022-08-22T20:59:53.839Z,2.90
2022-08-22T21:02:28.700Z,2.80
2022-08-22T21:05:13.478Z,3.20
2022-08-22T21:07:46.236Z,3.08
2022-08-22T21:10:50.678Z,3.50
2022-08-22T21:13:29.225Z,3.00
2022-08-22T21:15:57.304Z,3.00
2022-08-22T21:18:39.743Z,3.25
2022-08-22T21:21:17.684Z,2.85
2022-08-22T21:23:51.932Z,3.10
2022-08-22T21:26:36.606Z,3.20
2022-08-22T21:29:08.643Z,3.25
2022-08-22T21:32:18.725Z,3.00
2022-08-22T21:34:48.050Z,2.85
2022-08-22T21:37:33.392Z,3.00
2022-08-22T21:40:03.163Z,2.80
2022-08-22T21:42:38.030Z,3.30
2022-08-22T21:45:31.945Z,2.97
2022-08-22T21:47:59.886Z,3.00
2022-08-22T21:50:34.580Z,3.15
2022-08-22T21:53:10.095Z,3.10
2022-08-22T21:55:43.134Z,3.20
2022-08-22T21:58:36.309Z,3.00
2022-08-22T22:01:29.173Z,3.25
2022-08-22T22:03:58.262Z,3.22
2022-08-22T22:06:28.007Z,3.20
2022-08-22T22:08:55.206Z,3.20
2022-08-22T22:11:21.791Z,3.15
2022-08-22T22:13:49.036Z,3.00
2022-08-22T22:16:23.511Z,3.90
2022-08-22T22:18:50.182Z,3.28
2022-08-22T22:21:16.953Z,3.30
2022-08-22T22:23:43.569Z,4.85
2022-08-22T22:26:11.015Z,2.88
2022-08-22T22:28:47.312Z,3.15
2022-08-22T22:31:15.135Z,2.92
2022-08-22T22:33:43.026Z,3.33
2022-08-22T22:36:15.212Z,2.97
2022-08-22T22:38:42.367Z,3.20
2022-08-22T22:41:09.071Z,3.08
2022-08-22T22:43:36.743Z,3.15
2022-08-22T22:46:04.129Z,3.30
2022-08-22T22:48:31.496Z,3.03
2022-08-22T22:50:58.100Z,2.92
2022-08-22T22:53:33.871Z,3.40
2022-08-22T22:56:06.750Z,2.80
2022-08-22T22:58:35.504Z,2.80
2022-08-22T23:01:14.081Z,3.00
2022-08-22T23:03:41.697Z,3.10
2022-08-22T23:06:13.929Z,3.20
2022-08-22T23:08:40.974Z,3.05
2022-08-22T23:11:14.386Z,3.20
2022-08-22T23:13:44.408Z,3.30
2022-08-22T23:16:14.102Z,3.10
2022-08-22T23:18:41.714Z,3.25
2022-08-22T23:21:27.397Z,3.08
2022-08-22T23:23:59.282Z,3.33
2022-08-22T23:26:29.733Z,3.10
2022-08-22T23:28:57.864Z,3.20
2022-08-22T23:31:34.942Z,3.33
2022-08-22T23:34:08.313Z,3.13
2022-08-22T23:36:35.565Z,3.08
2022-08-22T23:39:02.594Z,3.15
2022-08-22T23:41:29.254Z,3.08
2022-08-22T23:43:58.015Z,3.30
2022-08-22T23:46:26.634Z,3.20
2022-08-22T23:48:54.102Z,3.10
2022-08-22T23:51:23.125Z,3.13
2022-08-22T23:53:50.528Z,3.10
2022-08-22T23:57:03.334Z,3.30
2022-08-22T23:59:43.388Z,3.30
